createdAt,value
2022-08-04T00:00:04.995Z,0.00
2022-08-04T00:01:05.007Z,0.00
2022-08-04T00:02:04.985Z,0.00
2022-08-04T00:03:05.407Z,0.00
2022-08-04T00:04:04.945Z,0.00
2022-08-04T00:05:05.553Z,0.00
2022-08-04T00:06:04.921Z,0.00
2022-08-04T00:07:04.934Z,0.00
2022-08-04T00:08:04.926Z,0.00
2022-08-04T00:09:04.894Z,0.00
2022-08-04T00:10:04.897Z,0.00
2022-08-04T00:11:04.865Z,0.00
2022-08-04T00:12:04.865Z,0.00
2022-08-04T00:13:04.886Z,0.00
2022-08-04T00:14:04.869Z,0.00
2022-08-04T00:15:04.826Z,0.00
2022-08-04T00:16:04.825Z,0.00
2022-08-04T00:17:04.806Z,0.00
2022-08-04T00:18:04.808Z,0.00
2022-08-04T00:19:04.810Z,0.00
2022-08-04T00:20:04.850Z,0.00
2022-08-04T00:21:04.776Z,0.00
2022-08-04T00:22:04.797Z,0.00
2022-08-04T00:23:04.897Z,0.00
2022-08-04T00:24:11.773Z,0.00
2022-08-04T00:25:05.724Z,0.00
2022-08-04T00:26:04.917Z,0.00
2022-08-04T00:27:04.951Z,0.00
2022-08-04T00:28:04.975Z,0.00
2022-08-04T00:29:04.679Z,0.00
2022-08-04T00:30:04.689Z,0.00
2022-08-04T00:31:04.658Z,0.00
2022-08-04T00:32:04.666Z,0.00
2022-08-04T00:33:04.651Z,0.00
2022-08-04T00:34:04.770Z,0.00
2022-08-04T00:35:04.602Z,0.00
2022-08-04T00:36:04.593Z,0.00
2022-08-04T00:37:04.579Z,0.00
2022-08-04T00:38:04.561Z,0.00
2022-08-04T00:39:04.615Z,0.00
2022-08-04T00:40:04.693Z,0.00
2022-08-04T00:41:04.521Z,0.00
2022-08-04T00:42:04.533Z,0.00
2022-08-04T00:43:04.510Z,0.00
2022-08-04T00:44:04.523Z,0.00
2022-08-04T00:45:04.510Z,0.00
2022-08-04T00:46:16.603Z,0.00
2022-08-04T00:47:05.461Z,0.00
2022-08-04T00:48:04.468Z,0.00
2022-08-04T00:49:04.442Z,0.00
2022-08-04T00:50:04.465Z,0.00
2022-08-04T00:51:04.413Z,0.00
2022-08-04T00:52:32.857Z,0.00
2022-08-04T00:53:05.647Z,0.00
2022-08-04T00:54:04.398Z,0.00
2022-08-04T00:55:08.607Z,0.00
2022-08-04T00:56:04.367Z,0.00
2022-08-04T00:57:04.357Z,0.00
2022-08-04T00:58:04.345Z,0.00
2022-08-04T00:59:04.325Z,0.00
2022-08-04T01:00:04.327Z,0.00
2022-08-04T01:01:04.422Z,0.00
2022-08-04T01:02:04.335Z,0.00
2022-08-04T01:03:04.303Z,0.00
2022-08-04T01:04:04.339Z,0.00
2022-08-04T01:05:04.266Z,0.00
2022-08-04T01:06:04.277Z,0.00
2022-08-04T01:07:04.238Z,0.00
2022-08-04T01:08:04.244Z,0.00
2022-08-04T01:09:04.224Z,0.00
2022-08-04T01:10:04.218Z,0.00
2022-08-04T01:11:04.224Z,0.00
2022-08-04T01:12:04.191Z,0.00
2022-08-04T01:13:05.038Z,0.00
2022-08-04T01:14:05.221Z,0.00
2022-08-04T01:15:04.162Z,0.00
2022-08-04T01:16:04.163Z,0.00
2022-08-04T01:17:04.142Z,0.00
2022-08-04T01:18:04.123Z,0.00
2022-08-04T01:19:04.110Z,0.00
2022-08-04T01:20:04.138Z,0.00
2022-08-04T01:21:04.130Z,0.00
2022-08-04T01:22:04.096Z,0.00
2022-08-04T01:23:04.062Z,0.00
2022-08-04T01:24:04.078Z,0.00
2022-08-04T01:25:04.661Z,0.00
2022-08-04T01:26:41.897Z,0.00
2022-08-04T01:27:05.021Z,0.00
2022-08-04T01:28:04.014Z,0.00
2022-08-04T01:29:04.011Z,0.00
2022-08-04T01:30:03.994Z,0.00
2022-08-04T01:31:03.986Z,0.00
2022-08-04T01:32:03.983Z,0.00
2022-08-04T01:33:03.946Z,0.00
2022-08-04T01:34:04.869Z,0.00
2022-08-04T01:35:03.934Z,0.00
2022-08-04T01:36:03.992Z,0.00
2022-08-04T01:37:03.919Z,0.00
2022-08-04T01:38:20.800Z,0.00
2022-08-04T01:39:04.942Z,0.00
2022-08-04T01:40:03.878Z,0.00
2022-08-04T01:41:03.854Z,0.00
2022-08-04T01:42:04.248Z,0.00
2022-08-04T01:43:03.835Z,0.00
2022-08-04T01:44:03.853Z,0.00
2022-08-04T01:45:03.842Z,0.00
2022-08-04T01:46:03.826Z,0.00
2022-08-04T01:47:03.807Z,0.00
2022-08-04T01:48:03.794Z,0.00
2022-08-04T01:49:03.775Z,0.00
2022-08-04T01:50:03.787Z,0.00
2022-08-04T01:51:03.777Z,0.00
2022-08-04T01:52:03.823Z,0.00
2022-08-04T01:53:03.754Z,0.00
2022-08-04T01:54:03.747Z,0.00
2022-08-04T01:55:03.830Z,0.00
2022-08-04T01:56:03.710Z,0.00
2022-08-04T01:57:38.225Z,0.00
2022-08-04T01:58:04.695Z,0.00
2022-08-04T01:59:03.693Z,0.00
2022-08-04T02:00:03.659Z,0.00
2022-08-04T02:01:04.893Z,0.00
2022-08-04T02:02:03.804Z,0.00
2022-08-04T02:03:03.664Z,0.00
2022-08-04T02:04:18.402Z,0.00
2022-08-04T02:05:04.611Z,0.00
2022-08-04T02:06:04.402Z,0.00
2022-08-04T02:07:03.579Z,0.00
2022-08-04T02:08:03.595Z,0.00
2022-08-04T02:09:03.563Z,0.00
2022-08-04T02:10:03.552Z,0.00
2022-08-04T02:11:03.525Z,0.00
2022-08-04T02:12:03.523Z,0.00
2022-08-04T02:13:03.530Z,0.00
2022-08-04T02:14:03.550Z,0.00
2022-08-04T02:15:03.491Z,0.00
2022-08-04T02:16:04.261Z,0.00
2022-08-04T02:17:03.511Z,0.00
2022-08-04T02:18:03.553Z,0.00
2022-08-04T02:19:03.551Z,0.00
2022-08-04T02:20:03.551Z,0.00
2022-08-04T02:21:03.470Z,0.00
2022-08-04T02:22:03.631Z,0.00
2022-08-04T02:23:03.647Z,0.00
2022-08-04T02:24:03.448Z,0.00
2022-08-04T02:25:03.695Z,0.00
2022-08-04T02:26:03.392Z,0.00
2022-08-04T02:27:03.355Z,0.00
2022-08-04T02:28:03.367Z,0.00
2022-08-04T02:29:03.396Z,0.00
2022-08-04T02:30:03.373Z,0.00
2022-08-04T02:31:03.315Z,0.00
2022-08-04T02:32:03.348Z,0.00
2022-08-04T02:33:03.320Z,0.00
2022-08-04T02:34:03.427Z,0.00
2022-08-04T02:35:03.336Z,0.00
2022-08-04T02:36:03.328Z,0.00
2022-08-04T02:37:03.319Z,0.00
2022-08-04T02:38:03.376Z,0.00
2022-08-04T02:39:03.487Z,0.00
2022-08-04T02:40:03.259Z,0.00
2022-08-04T02:41:03.400Z,0.00
2022-08-04T02:42:03.266Z,0.00
2022-08-04T02:43:03.351Z,0.00
2022-08-04T02:44:03.383Z,0.00
2022-08-04T02:45:03.381Z,0.00
2022-08-04T02:46:03.285Z,0.00
2022-08-04T02:47:03.404Z,0.00
2022-08-04T02:48:19.361Z,0.00
2022-08-04T02:49:04.299Z,0.00
2022-08-04T02:50:03.119Z,0.00
2022-08-04T02:51:03.201Z,0.00
2022-08-04T02:52:03.083Z,0.00
2022-08-04T02:53:03.319Z,0.00
2022-08-04T02:54:03.094Z,0.00
2022-08-04T02:55:03.152Z,0.00
2022-08-04T02:56:03.044Z,0.00
2022-08-04T02:57:08.065Z,0.00
2022-08-04T02:58:04.045Z,0.00
2022-08-04T02:59:02.999Z,0.00
2022-08-04T03:00:03.011Z,0.00
2022-08-04T03:01:03.072Z,0.00
2022-08-04T03:02:02.972Z,0.00
2022-08-04T03:03:02.952Z,0.00
2022-08-04T03:04:02.956Z,0.00
2022-08-04T03:05:02.968Z,0.00
2022-08-04T03:06:06.399Z,0.00
2022-08-04T03:07:03.915Z,0.00
2022-08-04T03:08:02.923Z,0.00
2022-08-04T03:09:02.909Z,0.00
2022-08-04T03:10:02.915Z,0.00
2022-08-04T03:11:02.863Z,0.00
2022-08-04T03:12:02.876Z,0.00
2022-08-04T03:13:02.860Z,0.00
2022-08-04T03:14:05.237Z,0.00
2022-08-04T03:15:03.863Z,0.00
2022-08-04T03:16:02.819Z,0.00
2022-08-04T03:17:02.811Z,0.00
2022-08-04T03:18:02.835Z,0.00
2022-08-04T03:19:02.767Z,0.00
2022-08-04T03:20:02.780Z,0.00
2022-08-04T03:21:02.770Z,0.00
2022-08-04T03:22:02.756Z,0.00
2022-08-04T03:23:17.842Z,0.00
2022-08-04T03:24:03.760Z,0.00
2022-08-04T03:25:02.728Z,0.00
2022-08-04T03:26:02.719Z,0.00
2022-08-04T03:27:02.700Z,0.00
2022-08-04T03:28:02.687Z,0.00
2022-08-04T03:29:02.709Z,0.00
2022-08-04T03:30:02.731Z,0.00
2022-08-04T03:31:02.668Z,0.00
2022-08-04T03:32:02.677Z,0.00
2022-08-04T03:33:02.620Z,0.00
2022-08-04T03:34:02.621Z,0.00
2022-08-04T03:35:02.613Z,0.00
2022-08-04T03:36:02.612Z,0.00
2022-08-04T03:37:02.572Z,0.00
2022-08-04T03:38:02.572Z,0.00
2022-08-04T03:39:02.637Z,0.00
2022-08-04T03:40:02.549Z,0.00
2022-08-04T03:41:03.993Z,0.00
2022-08-04T03:42:04.761Z,0.00
2022-08-04T03:43:02.540Z,0.00
2022-08-04T03:44:02.513Z,0.00
2022-08-04T03:45:02.500Z,0.00
2022-08-04T03:46:02.492Z,0.00
2022-08-04T03:47:02.491Z,0.00
2022-08-04T03:48:02.454Z,0.00
2022-08-04T03:49:02.452Z,0.00
2022-08-04T03:50:02.454Z,0.00
2022-08-04T03:51:02.423Z,0.00
2022-08-04T03:52:02.466Z,0.00
2022-08-04T03:53:02.396Z,0.00
2022-08-04T03:54:02.399Z,0.00
2022-08-04T03:55:02.419Z,0.00
2022-08-04T03:56:02.386Z,0.00
2022-08-04T03:57:02.375Z,0.00
2022-08-04T03:58:02.335Z,0.00
2022-08-04T03:59:02.334Z,0.00
2022-08-04T04:00:02.334Z,0.00
2022-08-04T04:01:02.335Z,0.00
2022-08-04T04:02:06.538Z,0.00
2022-08-04T04:03:02.307Z,0.00
2022-08-04T04:04:02.299Z,0.00
2022-08-04T04:05:02.267Z,0.00
2022-08-04T04:06:03.235Z,0.00
2022-08-04T04:07:02.238Z,0.00
2022-08-04T04:08:04.343Z,0.00
2022-08-04T04:09:03.231Z,0.00
2022-08-04T04:10:06.342Z,0.00
2022-08-04T04:11:02.206Z,0.00
2022-08-04T04:12:02.203Z,0.00
2022-08-04T04:13:02.227Z,0.00
2022-08-04T04:14:02.187Z,0.00
2022-08-04T04:15:02.188Z,0.00
2022-08-04T04:16:02.155Z,0.00
2022-08-04T04:17:02.172Z,5.62
2022-08-04T04:18:02.199Z,5.62
2022-08-04T04:19:02.140Z,5.62
2022-08-04T04:20:02.172Z,5.62
2022-08-04T04:21:02.091Z,5.62
2022-08-04T04:22:02.081Z,5.62
2022-08-04T04:23:02.067Z,5.62
2022-08-04T04:24:02.083Z,5.62
2022-08-04T04:25:02.143Z,5.62
2022-08-04T04:26:02.075Z,5.62
2022-08-04T04:27:02.127Z,5.62
2022-08-04T04:28:45.434Z,5.62
2022-08-04T04:29:03.627Z,5.62
2022-08-04T04:30:01.983Z,5.62
2022-08-04T04:31:02.031Z,5.62
2022-08-04T04:32:02.014Z,5.62
2022-08-04T04:33:02.049Z,5.62
2022-08-04T04:34:02.027Z,5.62
2022-08-04T04:35:01.971Z,5.62
2022-08-04T04:36:01.958Z,5.62
2022-08-04T04:37:01.922Z,5.62
2022-08-04T04:38:01.897Z,5.62
2022-08-04T04:39:02.143Z,5.62
2022-08-04T04:40:03.590Z,11.25
2022-08-04T04:41:01.887Z,11.25
2022-08-04T04:42:01.843Z,11.25
2022-08-04T04:43:01.842Z,11.25
2022-08-04T04:44:01.858Z,11.25
2022-08-04T04:45:01.827Z,11.25
2022-08-04T04:46:01.835Z,11.25
2022-08-04T04:47:01.812Z,11.25
2022-08-04T04:48:09.775Z,11.25
2022-08-04T04:49:02.807Z,11.25
2022-08-04T04:50:01.776Z,11.25
2022-08-04T04:51:01.786Z,11.25
2022-08-04T04:52:01.770Z,11.25
2022-08-04T04:53:01.742Z,11.25
2022-08-04T04:54:01.727Z,11.25
2022-08-04T04:55:01.747Z,11.25
2022-08-04T04:56:01.702Z,11.25
2022-08-04T04:57:01.687Z,11.25
2022-08-04T04:58:01.672Z,16.88
2022-08-04T04:59:01.678Z,16.88
2022-08-04T05:00:01.679Z,16.88
2022-08-04T05:01:01.919Z,16.88
2022-08-04T05:02:01.649Z,16.88
2022-08-04T05:03:04.881Z,16.88
2022-08-04T05:04:02.614Z,16.88
2022-08-04T05:05:01.620Z,16.88
2022-08-04T05:06:01.580Z,16.88
2022-08-04T05:07:01.587Z,16.88
2022-08-04T05:08:01.552Z,16.88
2022-08-04T05:09:02.560Z,16.88
2022-08-04T05:10:01.552Z,16.88
2022-08-04T05:11:01.552Z,16.88
2022-08-04T05:12:02.436Z,16.88
2022-08-04T05:14:36.104Z,16.88
2022-08-04T05:14:37.200Z,16.88
2022-08-04T05:15:02.527Z,16.88
2022-08-04T05:16:01.500Z,16.88
2022-08-04T05:17:01.464Z,16.88
2022-08-04T05:18:01.443Z,16.88
2022-08-04T05:19:01.475Z,16.88
2022-08-04T05:20:01.427Z,16.88
2022-08-04T05:21:01.485Z,16.88
2022-08-04T05:22:01.492Z,16.88
2022-08-04T05:23:01.423Z,16.88
2022-08-04T05:24:01.512Z,16.88
2022-08-04T05:25:01.445Z,16.88
2022-08-04T05:26:01.470Z,16.88
2022-08-04T05:27:01.545Z,16.88
2022-08-04T05:28:01.466Z,22.50
2022-08-04T05:29:01.424Z,22.50
2022-08-04T05:30:01.465Z,22.50
2022-08-04T05:31:01.485Z,22.50
2022-08-04T05:32:01.507Z,22.50
2022-08-04T05:33:01.609Z,22.50
2022-08-04T05:34:01.467Z,28.12
2022-08-04T05:35:01.503Z,28.12
2022-08-04T05:36:20.631Z,28.12
2022-08-04T05:37:02.303Z,33.75
2022-08-04T05:38:01.937Z,33.75
2022-08-04T05:39:01.543Z,33.75
2022-08-04T05:40:01.211Z,33.75
2022-08-04T05:41:01.222Z,33.75
2022-08-04T05:42:04.825Z,33.75
2022-08-04T05:43:01.203Z,33.75
2022-08-04T05:44:01.172Z,33.75
2022-08-04T05:45:01.181Z,33.75
2022-08-04T05:46:01.160Z,39.38
2022-08-04T05:47:01.130Z,39.38
2022-08-04T05:48:01.140Z,39.38
2022-08-04T05:49:01.113Z,39.38
2022-08-04T05:50:03.104Z,39.38
2022-08-04T05:51:01.397Z,33.75
2022-08-04T05:52:01.068Z,33.75
2022-08-04T05:53:01.440Z,33.75
2022-08-04T05:54:01.054Z,33.75
2022-08-04T05:55:01.048Z,33.75
2022-08-04T05:56:01.710Z,39.38
2022-08-04T05:57:01.041Z,39.38
2022-08-04T05:58:01.000Z,39.38
2022-08-04T05:59:01.008Z,39.38
2022-08-04T06:00:06.960Z,39.38
2022-08-04T06:01:02.040Z,39.38
2022-08-04T06:02:01.017Z,39.38
2022-08-04T06:03:01.020Z,39.38
2022-08-04T06:04:00.937Z,39.38
2022-08-04T06:05:00.932Z,33.75
2022-08-04T06:06:00.933Z,33.75
2022-08-04T06:07:00.944Z,33.75
2022-08-04T06:08:10.953Z,33.75
2022-08-04T06:09:01.887Z,33.75
2022-08-04T06:10:00.916Z,33.75
2022-08-04T06:11:00.899Z,39.38
2022-08-04T06:12:03.565Z,39.38
2022-08-04T06:13:00.912Z,39.38
2022-08-04T06:14:00.913Z,45.00
2022-08-04T06:15:00.895Z,45.00
2022-08-04T06:16:01.477Z,45.00
2022-08-04T06:17:00.861Z,45.00
2022-08-04T06:19:57.494Z,45.00
2022-08-04T06:20:03.933Z,45.00
2022-08-04T06:20:19.504Z,45.00
2022-08-04T06:21:01.990Z,45.00
2022-08-04T06:22:00.869Z,45.00
2022-08-04T06:23:00.772Z,45.00
2022-08-04T06:24:04.332Z,45.00
2022-08-04T06:25:00.746Z,45.00
2022-08-04T06:26:00.694Z,45.00
2022-08-04T06:27:00.712Z,45.00
2022-08-04T06:28:00.669Z,45.00
2022-08-04T06:29:00.664Z,45.00
2022-08-04T06:30:00.700Z,50.62
2022-08-04T06:31:00.661Z,45.00
2022-08-04T06:32:30.928Z,50.62
2022-08-04T06:33:03.864Z,50.62
2022-08-04T06:34:00.618Z,50.62
2022-08-04T06:35:00.699Z,50.62
2022-08-04T06:36:00.581Z,50.62
2022-08-04T06:37:00.599Z,50.62
2022-08-04T06:38:01.483Z,50.62
2022-08-04T06:39:00.630Z,50.62
2022-08-04T06:40:00.553Z,50.62
2022-08-04T06:41:00.542Z,50.62
2022-08-04T06:42:22.219Z,50.62
2022-08-04T06:43:01.761Z,56.25
2022-08-04T06:44:00.493Z,50.62
2022-08-04T06:45:00.527Z,50.62
2022-08-04T06:46:00.471Z,50.62
2022-08-04T06:47:00.479Z,50.62
2022-08-04T06:48:00.461Z,50.62
2022-08-04T06:49:00.458Z,56.25
2022-08-04T06:51:24.725Z,56.25
2022-08-04T06:51:26.464Z,56.25
2022-08-04T06:52:01.424Z,56.25
2022-08-04T06:53:00.394Z,56.25
2022-08-04T06:54:00.421Z,56.25
2022-08-04T06:55:00.385Z,56.25
2022-08-04T06:56:00.358Z,56.25
2022-08-04T06:57:00.405Z,50.62
2022-08-04T06:58:03.046Z,50.62
2022-08-04T06:59:00.354Z,50.62
2022-08-04T07:00:00.379Z,50.62
2022-08-04T07:01:00.329Z,50.62
2022-08-04T07:02:00.344Z,50.62
2022-08-04T07:03:00.273Z,50.62
2022-08-04T07:04:00.257Z,50.62
2022-08-04T07:05:03.322Z,50.62
2022-08-04T07:06:06.063Z,50.62
2022-08-04T07:07:01.359Z,50.62
2022-08-04T07:08:00.217Z,50.62
2022-08-04T07:09:00.261Z,50.62
2022-08-04T07:10:00.271Z,45.00
2022-08-04T07:11:00.209Z,45.00
2022-08-04T07:12:00.254Z,45.00
2022-08-04T07:13:00.270Z,45.00
2022-08-04T07:14:00.328Z,45.00
2022-08-04T07:15:00.300Z,45.00
2022-08-04T07:16:00.325Z,45.00
2022-08-04T07:17:00.359Z,45.00
2022-08-04T07:18:00.600Z,45.00
2022-08-04T07:19:09.779Z,45.00
2022-08-04T07:20:01.098Z,45.00
2022-08-04T07:21:00.120Z,45.00
2022-08-04T07:22:18.044Z,45.00
2022-08-04T07:23:01.051Z,45.00
2022-08-04T07:24:00.050Z,45.00
2022-08-04T07:25:00.050Z,45.00
2022-08-04T07:26:12.997Z,45.00
2022-08-04T07:27:01.014Z,45.00
2022-08-04T07:28:00.006Z,45.00
2022-08-04T07:29:00.020Z,45.00
2022-08-04T07:30:00.116Z,50.62
2022-08-04T07:30:59.990Z,50.62
2022-08-04T07:31:59.950Z,50.62
2022-08-04T07:32:59.954Z,50.62
2022-08-04T07:34:11.491Z,50.62
2022-08-04T07:35:00.977Z,50.62
2022-08-04T07:36:10.493Z,50.62
2022-08-04T07:37:00.902Z,50.62
2022-08-04T07:37:59.886Z,50.62
2022-08-04T07:38:59.912Z,56.25
2022-08-04T07:39:59.898Z,56.25
2022-08-04T07:40:59.898Z,56.25
2022-08-04T07:42:01.628Z,56.25
2022-08-04T07:42:59.854Z,56.25
2022-08-04T07:43:59.826Z,50.62
2022-08-04T07:44:59.840Z,50.62
2022-08-04T07:45:59.815Z,50.62
2022-08-04T07:46:59.810Z,50.62
2022-08-04T07:48:05.023Z,50.62
2022-08-04T07:49:00.792Z,50.62
2022-08-04T07:49:59.754Z,56.25
2022-08-04T07:50:59.778Z,56.25
2022-08-04T07:51:59.739Z,56.25
2022-08-04T07:53:53.326Z,56.25
2022-08-04T07:54:00.728Z,56.25
2022-08-04T07:54:59.730Z,56.25
2022-08-04T07:55:59.690Z,56.25
2022-08-04T07:56:59.705Z,50.62
2022-08-04T07:57:59.679Z,50.62
2022-08-04T07:58:59.735Z,56.25
2022-08-04T07:59:59.648Z,56.25
2022-08-04T08:00:59.651Z,56.25
2022-08-04T08:01:59.651Z,56.25
2022-08-04T08:02:59.699Z,56.25
2022-08-04T08:03:59.647Z,56.25
2022-08-04T08:04:59.604Z,56.25
2022-08-04T08:06:30.918Z,56.25
2022-08-04T08:07:00.626Z,56.25
2022-08-04T08:07:59.559Z,56.25
2022-08-04T08:08:59.563Z,56.25
2022-08-04T08:09:59.531Z,56.25
2022-08-04T08:10:59.534Z,56.25
2022-08-04T08:12:36.980Z,56.25
2022-08-04T08:13:00.543Z,56.25
2022-08-04T08:13:59.515Z,56.25
2022-08-04T08:14:59.568Z,56.25
2022-08-04T08:15:59.487Z,56.25
2022-08-04T08:16:59.572Z,50.62
2022-08-04T08:18:00.691Z,56.25
2022-08-04T08:18:59.463Z,56.25
2022-08-04T08:19:59.423Z,50.62
2022-08-04T08:20:59.427Z,50.62
2022-08-04T08:22:00.754Z,50.62
2022-08-04T08:22:59.439Z,56.25
2022-08-04T08:23:59.403Z,56.25
2022-08-04T08:24:59.535Z,56.25
2022-08-04T08:25:59.369Z,56.25
2022-08-04T08:26:59.377Z,56.25
2022-08-04T08:27:59.369Z,56.25
2022-08-04T08:28:59.384Z,61.88
2022-08-04T08:29:59.319Z,56.25
2022-08-04T08:30:59.505Z,50.62
2022-08-04T08:32:04.065Z,56.25
2022-08-04T08:33:00.304Z,56.25
2022-08-04T08:33:59.296Z,56.25
2022-08-04T08:34:59.427Z,61.88
2022-08-04T08:35:59.245Z,61.88
2022-08-04T08:36:59.257Z,61.88
2022-08-04T08:37:59.232Z,67.50
2022-08-04T08:38:59.544Z,67.50
2022-08-04T08:39:59.244Z,61.88
2022-08-04T08:40:59.216Z,67.50
2022-08-04T08:41:59.220Z,67.50
2022-08-04T08:42:59.187Z,67.50
2022-08-04T08:44:06.902Z,61.88
2022-08-04T08:45:00.158Z,61.88
2022-08-04T08:45:59.164Z,67.50
2022-08-04T08:46:59.135Z,67.50
2022-08-04T08:48:06.027Z,61.88
2022-08-04T08:49:00.124Z,67.50
2022-08-04T08:50:02.613Z,67.50
2022-08-04T08:50:59.084Z,67.50
2022-08-04T08:51:59.191Z,67.50
2022-08-04T08:53:02.629Z,67.50
2022-08-04T08:53:59.127Z,67.50
2022-08-04T08:54:59.112Z,67.50
2022-08-04T08:55:59.295Z,67.50
2022-08-04T08:56:59.048Z,67.50
2022-08-04T08:58:00.741Z,67.50
2022-08-04T08:58:59.115Z,67.50
2022-08-04T08:59:59.160Z,67.50
2022-08-04T09:00:59.211Z,67.50
2022-08-04T09:01:59.284Z,67.50
2022-08-04T09:03:04.774Z,61.88
2022-08-04T09:03:59.967Z,61.88
2022-08-04T09:04:59.423Z,61.88
2022-08-04T09:05:59.191Z,61.88
2022-08-04T09:06:59.381Z,61.88
2022-08-04T09:07:59.260Z,61.88
2022-08-04T09:08:59.192Z,61.88
2022-08-04T09:09:59.284Z,61.88
2022-08-04T09:10:59.308Z,61.88
2022-08-04T09:11:59.323Z,61.88
2022-08-04T09:12:59.232Z,61.88
2022-08-04T09:13:59.257Z,61.88
2022-08-04T09:14:58.849Z,61.88
2022-08-04T09:15:58.844Z,61.88
2022-08-04T09:17:05.872Z,61.88
2022-08-04T09:17:58.804Z,61.88
2022-08-04T09:18:59.552Z,61.88
2022-08-04T09:19:58.784Z,50.62
2022-08-04T09:20:58.792Z,61.88
2022-08-04T09:21:58.763Z,67.50
2022-08-04T09:22:58.743Z,67.50
2022-08-04T09:23:58.736Z,67.50
2022-08-04T09:24:58.715Z,67.50
2022-08-04T09:25:58.716Z,73.12
2022-08-04T09:26:59.886Z,73.12
2022-08-04T09:28:02.869Z,78.75
2022-08-04T09:28:59.691Z,73.12
2022-08-04T09:29:58.675Z,73.12
2022-08-04T09:30:58.675Z,78.75
2022-08-04T09:32:06.976Z,84.38
2022-08-04T09:32:59.656Z,84.38
2022-08-04T09:33:58.648Z,84.38
2022-08-04T09:35:04.648Z,84.38
2022-08-04T09:35:59.834Z,84.38
2022-08-04T09:36:58.596Z,84.38
2022-08-04T09:37:58.647Z,84.38
2022-08-04T09:38:58.646Z,84.38
2022-08-04T09:39:58.577Z,90.00
2022-08-04T09:40:58.730Z,90.00
2022-08-04T09:41:59.636Z,90.00
2022-08-04T09:42:58.553Z,90.00
2022-08-04T09:44:51.225Z,84.38
2022-08-04T09:45:05.744Z,90.00
2022-08-04T09:45:59.525Z,84.38
2022-08-04T09:46:59.765Z,90.00
2022-08-04T09:47:58.504Z,84.38
2022-08-04T09:48:58.464Z,84.38
2022-08-04T09:49:58.464Z,84.38
2022-08-04T09:50:58.475Z,84.38
2022-08-04T09:51:59.782Z,90.00
2022-08-04T09:52:58.439Z,84.38
2022-08-04T09:53:58.424Z,84.38
2022-08-04T09:54:58.421Z,84.38
2022-08-04T09:56:02.670Z,84.38
2022-08-04T09:56:59.637Z,78.75
2022-08-04T09:57:58.413Z,84.38
2022-08-04T09:58:58.444Z,84.38
2022-08-04T09:59:58.359Z,84.38
2022-08-04T10:00:58.357Z,84.38
2022-08-04T10:01:58.982Z,84.38
2022-08-04T10:02:58.361Z,84.38
2022-08-04T10:03:58.308Z,84.38
2022-08-04T10:04:58.296Z,84.38
2022-08-04T10:06:05.420Z,84.38
2022-08-04T10:06:58.312Z,84.38
2022-08-04T10:08:02.105Z,84.38
2022-08-04T10:08:59.253Z,84.38
2022-08-04T10:09:58.256Z,84.38
2022-08-04T10:10:58.246Z,78.75
2022-08-04T10:11:58.226Z,78.75
2022-08-04T10:12:58.278Z,78.75
2022-08-04T10:13:58.214Z,78.75
2022-08-04T10:14:58.192Z,78.75
2022-08-04T10:15:58.225Z,78.75
2022-08-04T10:16:58.189Z,78.75
2022-08-04T10:17:58.164Z,73.12
2022-08-04T10:18:58.197Z,78.75
2022-08-04T10:19:59.165Z,78.75
2022-08-04T10:21:02.514Z,78.75
2022-08-04T10:21:59.447Z,78.75
2022-08-04T10:23:11.246Z,84.38
2022-08-04T10:24:00.393Z,84.38
2022-08-04T10:24:58.089Z,90.00
2022-08-04T10:26:05.314Z,90.00
2022-08-04T10:26:59.068Z,90.00
2022-08-04T10:27:58.061Z,90.00
2022-08-04T10:28:58.078Z,90.00
2022-08-04T10:29:58.040Z,90.00
2022-08-04T10:30:58.033Z,95.62
2022-08-04T10:31:58.013Z,95.62
2022-08-04T10:32:58.021Z,90.00
2022-08-04T10:33:58.021Z,90.00
2022-08-04T10:34:57.975Z,90.00
2022-08-04T10:35:57.985Z,90.00
2022-08-04T10:36:57.953Z,90.00
2022-08-04T10:38:01.717Z,90.00
2022-08-04T10:38:58.042Z,90.00
2022-08-04T10:39:57.975Z,90.00
2022-08-04T10:40:57.917Z,90.00
2022-08-04T10:41:59.662Z,90.00
2022-08-04T10:42:57.913Z,90.00
2022-08-04T10:43:57.897Z,78.75
2022-08-04T10:44:58.267Z,67.50
2022-08-04T10:45:58.440Z,84.38
2022-08-04T10:46:57.868Z,90.00
2022-08-04T10:47:57.857Z,90.00
2022-08-04T10:48:57.826Z,90.00
2022-08-04T10:49:57.865Z,90.00
2022-08-04T10:50:57.809Z,90.00
2022-08-04T10:51:59.560Z,90.00
2022-08-04T10:52:57.801Z,90.00
2022-08-04T10:53:57.789Z,95.62
2022-08-04T10:54:57.950Z,95.62
2022-08-04T10:56:06.345Z,95.62
2022-08-04T10:56:58.741Z,95.62
2022-08-04T10:57:57.757Z,95.62
2022-08-04T10:58:57.724Z,101.25
2022-08-04T11:00:00.705Z,95.62
2022-08-04T11:00:58.729Z,95.62
2022-08-04T11:02:01.008Z,95.62
2022-08-04T11:02:58.751Z,95.62
2022-08-04T11:03:57.681Z,95.62
2022-08-04T11:04:57.698Z,90.00
2022-08-04T11:05:57.682Z,90.00
2022-08-04T11:06:57.694Z,90.00
2022-08-04T11:07:57.654Z,90.00
2022-08-04T11:08:57.630Z,90.00
2022-08-04T11:09:57.649Z,84.38
2022-08-04T11:10:57.626Z,84.38
2022-08-04T11:12:02.070Z,84.38
2022-08-04T11:12:57.581Z,90.00
2022-08-04T11:13:57.586Z,90.00
2022-08-04T11:14:57.582Z,90.00
2022-08-04T11:15:57.578Z,90.00
2022-08-04T11:16:57.547Z,90.00
2022-08-04T11:17:57.546Z,95.62
2022-08-04T11:18:57.513Z,95.62
2022-08-04T11:20:12.355Z,95.62
2022-08-04T11:20:58.518Z,95.62
2022-08-04T11:21:57.497Z,95.62
2022-08-04T11:22:57.531Z,101.25
2022-08-04T11:23:57.479Z,95.62
2022-08-04T11:24:57.474Z,101.25
2022-08-04T11:25:57.516Z,101.25
2022-08-04T11:26:57.438Z,101.25
2022-08-04T11:27:57.466Z,101.25
2022-08-04T11:29:04.063Z,101.25
2022-08-04T11:29:58.452Z,106.88
2022-08-04T11:30:57.411Z,73.12
2022-08-04T11:31:57.382Z,78.75
2022-08-04T11:32:57.378Z,95.62
2022-08-04T11:33:57.374Z,118.12
2022-08-04T11:34:57.356Z,101.25
2022-08-04T11:35:57.364Z,90.00
2022-08-04T11:36:57.346Z,90.00
2022-08-04T11:37:57.327Z,106.88
2022-08-04T11:38:57.372Z,90.00
2022-08-04T11:39:57.299Z,84.38
2022-08-04T11:41:02.487Z,95.62
2022-08-04T11:41:58.330Z,90.00
2022-08-04T11:42:57.279Z,78.75
2022-08-04T11:44:02.302Z,101.25
2022-08-04T11:44:58.280Z,73.12
2022-08-04T11:45:57.249Z,73.12
2022-08-04T11:46:57.330Z,106.88
2022-08-04T11:47:57.670Z,106.88
2022-08-04T11:48:57.199Z,123.75
2022-08-04T11:49:58.156Z,118.12
2022-08-04T11:50:57.199Z,118.12
2022-08-04T11:51:57.206Z,95.62
2022-08-04T11:52:57.214Z,95.62
2022-08-04T11:53:57.164Z,78.75
2022-08-04T11:54:57.146Z,73.12
2022-08-04T11:56:07.807Z,78.75
2022-08-04T11:56:58.134Z,95.62
2022-08-04T11:57:57.130Z,112.50
2022-08-04T11:58:57.095Z,112.50
2022-08-04T11:59:57.114Z,123.75
2022-08-04T12:00:58.072Z,123.75
2022-08-04T12:01:57.131Z,101.25
2022-08-04T12:02:57.070Z,118.12
2022-08-04T12:04:04.017Z,95.62
2022-08-04T12:04:58.045Z,118.12
2022-08-04T12:05:57.035Z,67.50
2022-08-04T12:07:15.152Z,73.12
2022-08-04T12:07:58.023Z,78.75
2022-08-04T12:08:57.000Z,129.38
2022-08-04T12:09:56.999Z,112.50
2022-08-04T12:10:56.995Z,135.00
2022-08-04T12:11:57.010Z,84.38
2022-08-04T12:12:56.968Z,118.12
2022-08-04T12:14:00.614Z,78.75
2022-08-04T12:14:56.928Z,95.62
2022-08-04T12:15:56.947Z,135.00
2022-08-04T12:16:56.927Z,135.00
2022-08-04T12:17:56.900Z,135.00
2022-08-04T12:18:56.911Z,129.38
2022-08-04T12:20:04.112Z,118.12
2022-08-04T12:20:57.867Z,118.12
2022-08-04T12:21:57.059Z,112.50
2022-08-04T12:22:56.882Z,112.50
2022-08-04T12:24:00.488Z,112.50
2022-08-04T12:24:56.839Z,118.12
2022-08-04T12:25:56.901Z,118.12
2022-08-04T12:26:56.804Z,118.12
2022-08-04T12:27:56.802Z,112.50
2022-08-04T12:29:12.049Z,84.38
2022-08-04T12:31:02.220Z,101.25
2022-08-04T12:31:03.402Z,84.38
2022-08-04T12:31:57.803Z,95.62
2022-08-04T12:32:56.743Z,146.25
2022-08-04T12:34:05.239Z,129.38
2022-08-04T12:34:57.943Z,118.12
2022-08-04T12:35:57.446Z,106.88
2022-08-04T12:36:58.090Z,106.88
2022-08-04T12:37:57.084Z,106.88
2022-08-04T12:38:56.772Z,118.12
2022-08-04T12:40:27.673Z,129.38
2022-08-04T12:40:57.795Z,118.12
2022-08-04T12:41:56.675Z,123.75
2022-08-04T12:42:59.726Z,118.12
2022-08-04T12:43:56.661Z,106.88
2022-08-04T12:44:56.647Z,106.88
2022-08-04T12:45:56.619Z,101.25
2022-08-04T12:46:56.627Z,101.25
2022-08-04T12:47:57.616Z,106.88
2022-08-04T12:48:56.587Z,101.25
2022-08-04T12:50:00.682Z,101.25
2022-08-04T12:50:57.561Z,101.25
2022-08-04T12:52:08.510Z,123.75
2022-08-04T12:53:02.761Z,112.50
2022-08-04T12:53:57.547Z,135.00
2022-08-04T12:54:56.515Z,146.25
2022-08-04T12:56:01.146Z,157.50
2022-08-04T12:56:58.075Z,129.38
2022-08-04T12:57:56.515Z,112.50
2022-08-04T12:58:56.474Z,101.25